Airfield :
LOGIN :

Register | Disclaimer

   EN    FR    IT 

 










Legend :    VFR   Marginal VFR   IFR   Intensive IFR   Very Intensive IFR
Visi :
Ceiling :
>= 8 km
>= 3000ft
5 to 8 km
1000 to 3000 ft
1500m to 5 km
500 to 1000 ft
800 to 1500m
200 to 500 ft
< 800m
< 200 ft
Symbols :   Thunderstorms  Fog  Heavy snow  Heavy precipitations  Wind > 20 kt
SIGMETs :     Misc.  Thunderstorms  Icing  Turbulence  Mountain Waves  Volcanic Ashes






- Airport Elevation : 598 ft
- IATA code : BQH


EGKB - Biggin Hill

CURRENT METAR :
  • 181850Z 21013KT 9999 FEW040 11/08 Q1001

EXPIRED METARs :
  • 181820Z 20014KT 9999 FEW040 11/08 Q1001
  • 181750Z 21012KT 9999 FEW040 11/08 Q1001
  • 181720Z 21015KT 9999 -SHRA FEW020CB SCT040 11/08 Q1001
  • 181650Z 20015KT 9999 FEW030 11/08 Q1001
  • 181620Z 21016G26KT 9999 FEW030 12/08 Q1001
  • 181550Z 21015KT 9999 VCSH FEW020 SCT030 12/08 Q1001

TAF TAF EGKB
Valid from the 18 at 18:00 until the 18 at 23:00 UTC


181703Z 1818/1823 23012KT 9999 SCT030
TEMPO 1818/1823 7000 SHRA
PROB30
TEMPO 1818/1820 23016G28KT 4000 +SHRA



MET'MAP, your aeronautical weather chart ! - Copyright ORBIFLY December 2007 - Disclaimer

ORBIFLY MET'MAP TEAM :

Programming & Development : Alexandra Zaïnal
Concept & Development : Baudouin d'Aumeries
Co-Development & Prog : Marc-Olivier Méhu
Technical & hardware support : Manuel Goepfert

Contact : metmap@orbifly.com




SOURCES & CREDITS :

   NOAA